Portada
METAR-TAF:

METAR-TAF

Aeroports :

Columbus County Municipal Airport

Whiteville, Carolina del Nord, Estats Units d'Amèrica

latitud: 34-16-22N, longitud: 078-42-54W, altitud: 30 m

Observació

L'informe es va fer fa 37 minuts, a les 12:15 UTC
Vent calma
Temperatura 6°C
Humitat 100%
Pressió 1011 hPa
Visibilitat: 4.0 km
Cel ennuvolat a una alçada de 100 ft
boirina

METAR: KCPC 191215Z AUTO 00000KT 2 1/2SM BR BKN001 06/06 A2986 RMK AO2 T00620060

Hora: 07:52 (12:52 UTC)


TAF: manca

Observacions i pronòstics meteorològics de més de 4000 aeroports (METAR i TAF).

Les estacions disponibles són els punts grocs i vermells al mapa.

Posi el ratolí al punt desitjat per veure el nom de l'estació.

Feu clic per veure les observacions i els pronòstics meteorològics.

Per canviar el mapa: feu clic els botons verds amb una creu de color negre per apropar; al botó verd amb un guió per allunyar la imatge; o en les fletxes verdes per a mapes adjacents.


METAR-TAF: